createdAt,value
2019-03-30T00:01:10.083Z,53.20
2019-03-30T00:03:36.068Z,51.50
2019-03-30T00:06:02.080Z,57.47
2019-03-30T00:08:28.329Z,57.03
2019-03-30T00:10:54.441Z,59.10
2019-03-30T00:13:20.423Z,60.43
2019-03-30T00:15:46.434Z,61.10
2019-03-30T00:18:12.885Z,58.40
2019-03-30T00:20:39.077Z,54.20
2019-03-30T00:23:05.202Z,55.40
2019-03-30T00:25:31.207Z,57.90
2019-03-30T00:27:57.233Z,61.20
2019-03-30T00:30:23.407Z,59.80
2019-03-30T00:32:49.658Z,61.30
2019-03-30T00:35:15.749Z,56.90
2019-03-30T00:37:41.748Z,59.43
2019-03-30T00:40:07.712Z,58.73
2019-03-30T00:42:33.736Z,58.57
2019-03-30T00:44:59.712Z,53.80
2019-03-30T00:47:25.731Z,59.27
2019-03-30T00:49:51.704Z,56.53
2019-03-30T00:52:17.716Z,54.07
2019-03-30T00:54:43.688Z,54.40
2019-03-30T00:57:09.721Z,51.63
2019-03-30T00:59:35.676Z,51.83
2019-03-30T01:02:01.703Z,51.80
2019-03-30T01:04:27.708Z,51.70
2019-03-30T01:06:53.751Z,51.13
2019-03-30T01:09:19.728Z,50.70
2019-03-30T01:11:45.710Z,48.53
2019-03-30T01:14:11.903Z,50.20
2019-03-30T01:16:37.896Z,57.70
2019-03-30T01:19:04.491Z,50.27
2019-03-30T01:21:30.510Z,53.20
2019-03-30T01:23:56.518Z,52.37
2019-03-30T01:26:22.512Z,49.13
2019-03-30T01:28:48.539Z,53.37
2019-03-30T01:31:14.521Z,53.97
2019-03-30T01:33:40.547Z,57.00
2019-03-30T01:36:06.644Z,53.13
2019-03-30T01:38:34.526Z,56.00
2019-03-30T01:41:01.061Z,64.07
2019-03-30T01:43:27.063Z,60.87
2019-03-30T01:45:53.049Z,57.40
2019-03-30T01:48:19.060Z,62.80
2019-03-30T01:50:45.079Z,59.93
2019-03-30T01:53:11.055Z,62.40
2019-03-30T01:55:37.062Z,61.57
2019-03-30T01:58:03.047Z,64.17
2019-03-30T02:00:29.093Z,64.80
2019-03-30T02:02:55.068Z,64.47
2019-03-30T02:05:21.050Z,64.13
2019-03-30T02:07:47.143Z,64.37
2019-03-30T02:10:17.125Z,63.70
2019-03-30T02:12:43.294Z,62.87
2019-03-30T02:15:09.368Z,61.17
2019-03-30T02:17:35.347Z,57.83
2019-03-30T02:20:02.272Z,63.67
2019-03-30T02:22:28.251Z,60.90
2019-03-30T02:24:54.210Z,59.60
2019-03-30T02:27:20.433Z,65.13
2019-03-30T02:29:51.324Z,58.83
2019-03-30T02:32:17.341Z,55.13
2019-03-30T02:34:43.361Z,54.50
2019-03-30T02:37:09.378Z,60.53
2019-03-30T02:39:35.467Z,59.63
2019-03-30T02:42:01.491Z,53.60
2019-03-30T02:44:27.530Z,55.00
2019-03-30T02:46:53.739Z,48.33
2019-03-30T02:49:19.879Z,53.27
2019-03-30T02:51:45.958Z,46.77
2019-03-30T02:54:11.973Z,47.03
2019-03-30T02:56:37.949Z,52.93
2019-03-30T02:59:03.973Z,48.67
2019-03-30T03:01:30.064Z,45.13
2019-03-30T03:03:56.080Z,68.10
2019-03-30T03:06:22.133Z,53.03
2019-03-30T03:08:48.156Z,67.83
2019-03-30T03:11:14.271Z,60.20
2019-03-30T03:13:40.347Z,131.10
2019-03-30T03:16:06.406Z,77.70
2019-03-30T03:18:32.392Z,55.20
2019-03-30T03:21:07.419Z,67.83
2019-03-30T03:23:26.292Z,53.10
2019-03-30T03:25:52.309Z,69.50
2019-03-30T03:28:18.288Z,65.67
2019-03-30T03:30:44.544Z,55.43
2019-03-30T03:33:10.525Z,53.97
2019-03-30T03:35:36.522Z,56.33
2019-03-30T03:38:02.517Z,62.00
2019-03-30T03:40:28.500Z,59.83
2019-03-30T03:42:54.506Z,45.10
2019-03-30T03:45:20.521Z,50.07
2019-03-30T03:47:46.826Z,43.83
2019-03-30T03:50:34.790Z,42.40
2019-03-30T03:53:00.865Z,42.20
2019-03-30T03:55:26.893Z,39.70
2019-03-30T03:57:53.175Z,42.73
2019-03-30T04:00:19.346Z,39.13
2019-03-30T04:02:45.659Z,38.73
2019-03-30T04:05:11.656Z,38.70
2019-03-30T04:07:40.651Z,38.20
2019-03-30T04:10:07.421Z,41.00
2019-03-30T04:12:35.407Z,37.33
2019-03-30T04:15:04.093Z,36.93
2019-03-30T04:17:30.085Z,35.90
2019-03-30T04:19:56.106Z,39.43
2019-03-30T04:22:22.131Z,34.00
2019-03-30T04:24:48.159Z,35.40
2019-03-30T04:27:14.153Z,33.90
2019-03-30T04:29:40.383Z,37.00
2019-03-30T04:32:06.412Z,34.20
2019-03-30T04:34:32.559Z,34.20
2019-03-30T04:36:58.568Z,33.87
2019-03-30T04:39:24.919Z,40.67
2019-03-30T04:41:51.027Z,39.37
2019-03-30T04:44:17.005Z,39.40
2019-03-30T04:46:43.018Z,37.17
2019-03-30T04:49:09.048Z,52.10
2019-03-30T04:51:35.087Z,52.60
2019-03-30T04:54:01.112Z,62.27
2019-03-30T04:56:27.094Z,68.33
2019-03-30T04:58:53.065Z,53.80
2019-03-30T05:01:19.105Z,54.97
2019-03-30T05:03:45.224Z,42.77
2019-03-30T05:06:11.290Z,42.53
2019-03-30T05:08:37.333Z,59.07
2019-03-30T05:11:03.309Z,66.30
2019-03-30T05:13:29.345Z,47.10
2019-03-30T05:15:55.330Z,45.47
2019-03-30T05:18:21.292Z,47.00
2019-03-30T05:20:47.749Z,39.33
2019-03-30T05:23:13.756Z,40.10
2019-03-30T05:25:39.772Z,50.60
2019-03-30T05:28:05.808Z,54.43
2019-03-30T05:30:31.858Z,45.17
2019-03-30T05:33:05.457Z,42.57
2019-03-30T05:35:25.756Z,48.63
2019-03-30T05:37:51.860Z,41.07
2019-03-30T05:40:17.879Z,35.80
2019-03-30T05:42:43.940Z,34.50
2019-03-30T05:45:10.265Z,32.50
2019-03-30T05:47:36.287Z,32.93
2019-03-30T05:50:04.620Z,39.33
2019-03-30T05:52:30.592Z,33.30
2019-03-30T05:54:56.580Z,49.03
2019-03-30T05:57:22.591Z,38.80
2019-03-30T05:59:48.801Z,39.57
2019-03-30T06:02:14.815Z,41.43
2019-03-30T06:04:40.822Z,40.67
2019-03-30T06:07:06.828Z,33.23
2019-03-30T06:09:32.808Z,39.00
2019-03-30T06:11:58.858Z,39.40
2019-03-30T06:14:24.836Z,33.90
2019-03-30T06:16:50.831Z,31.53
2019-03-30T06:19:16.852Z,32.50
2019-03-30T06:21:42.881Z,29.17
2019-03-30T06:24:08.892Z,34.20
2019-03-30T06:26:34.877Z,35.80
2019-03-30T06:29:00.932Z,32.10
2019-03-30T06:31:27.104Z,27.40
2019-03-30T06:33:53.118Z,29.27
2019-03-30T06:36:19.189Z,28.83
2019-03-30T06:38:45.233Z,32.43
2019-03-30T06:41:11.240Z,28.43
2019-03-30T06:43:37.278Z,28.20
2019-03-30T06:46:03.318Z,26.90
2019-03-30T06:48:29.494Z,26.13
2019-03-30T06:50:55.565Z,24.60
2019-03-30T06:53:21.743Z,26.00
2019-03-30T06:55:47.912Z,29.30
2019-03-30T06:58:14.129Z,26.87
2019-03-30T07:00:40.582Z,27.90
2019-03-30T07:03:06.705Z,27.33
2019-03-30T07:05:37.696Z,29.83
2019-03-30T07:08:05.742Z,28.73
2019-03-30T07:10:32.102Z,26.10
2019-03-30T07:13:01.628Z,31.60
2019-03-30T07:15:29.742Z,29.20
2019-03-30T07:17:59.633Z,31.40
2019-03-30T07:20:28.541Z,35.03
2019-03-30T07:22:55.091Z,30.23
2019-03-30T07:25:21.252Z,32.27
2019-03-30T07:27:47.223Z,29.23
2019-03-30T07:30:13.504Z,30.00
2019-03-30T07:32:39.676Z,30.50
2019-03-30T07:35:06.026Z,31.40
2019-03-30T07:37:32.102Z,28.57
2019-03-30T07:39:58.230Z,31.80
2019-03-30T07:42:24.446Z,30.90
2019-03-30T07:44:50.594Z,33.50
2019-03-30T07:47:16.579Z,30.83
2019-03-30T07:49:42.694Z,30.53
2019-03-30T07:52:08.874Z,36.57
2019-03-30T07:54:35.003Z,30.53
2019-03-30T07:57:06.283Z,33.97
2019-03-30T07:59:29.104Z,31.23
2019-03-30T08:01:55.180Z,34.80
2019-03-30T08:04:21.180Z,34.70
2019-03-30T08:06:47.221Z,37.27
2019-03-30T08:09:13.280Z,33.33
2019-03-30T08:11:39.340Z,31.60
2019-03-30T08:14:05.522Z,29.30
2019-03-30T08:16:31.566Z,34.47
2019-03-30T08:18:57.574Z,32.00
2019-03-30T08:21:23.580Z,32.40
2019-03-30T08:23:49.626Z,33.23
2019-03-30T08:26:17.590Z,32.90
2019-03-30T08:28:43.716Z,30.27
2019-03-30T08:31:09.703Z,34.80
2019-03-30T08:33:35.740Z,30.13
2019-03-30T08:36:01.968Z,31.67
2019-03-30T08:38:28.109Z,31.17
2019-03-30T08:40:54.133Z,31.17
2019-03-30T08:43:20.192Z,35.57
2019-03-30T08:45:48.878Z,31.93
2019-03-30T08:48:14.355Z,29.47
2019-03-30T08:50:40.379Z,30.97
2019-03-30T08:53:06.440Z,31.70
2019-03-30T08:55:32.560Z,29.33
2019-03-30T08:57:58.651Z,30.03
2019-03-30T09:00:37.008Z,32.97
2019-03-30T09:03:03.278Z,30.40
2019-03-30T09:05:29.277Z,34.27
2019-03-30T09:07:55.363Z,31.83
2019-03-30T09:10:21.826Z,32.07
2019-03-30T09:12:47.947Z,32.53
2019-03-30T09:15:13.926Z,30.90
2019-03-30T09:17:40.069Z,31.00
2019-03-30T09:20:06.707Z,33.73
2019-03-30T09:22:33.147Z,33.57
2019-03-30T09:24:59.288Z,34.00
2019-03-30T09:27:25.441Z,33.47
2019-03-30T09:29:55.145Z,33.27
2019-03-30T09:32:22.896Z,34.23
2019-03-30T09:34:49.179Z,32.07
2019-03-30T09:37:15.281Z,36.00
2019-03-30T09:39:41.294Z,33.43
2019-03-30T09:42:07.304Z,32.10
2019-03-30T09:44:33.348Z,32.17
2019-03-30T09:46:59.470Z,32.30
2019-03-30T09:49:25.452Z,34.10
2019-03-30T09:51:51.532Z,33.07
2019-03-30T09:54:23.634Z,33.80
2019-03-30T09:56:45.537Z,33.23
2019-03-30T09:59:11.562Z,32.20
2019-03-30T10:01:38.433Z,33.27
2019-03-30T10:04:04.471Z,34.80
2019-03-30T10:06:34.356Z,34.13
2019-03-30T10:08:58.363Z,33.57
2019-03-30T10:11:24.381Z,34.90
2019-03-30T10:13:50.380Z,34.73
2019-03-30T10:16:16.400Z,34.67
2019-03-30T10:18:42.516Z,35.13
2019-03-30T10:21:08.500Z,34.50
2019-03-30T10:23:34.476Z,34.20
2019-03-30T10:26:00.721Z,32.03
2019-03-30T10:28:26.711Z,32.70
2019-03-30T10:30:52.802Z,33.33
2019-03-30T10:33:18.842Z,32.07
2019-03-30T10:35:44.827Z,29.43
2019-03-30T10:38:10.799Z,30.63
2019-03-30T10:40:36.818Z,29.57
2019-03-30T10:43:02.842Z,27.10
2019-03-30T10:45:28.896Z,29.40
2019-03-30T10:47:54.923Z,28.70
2019-03-30T10:50:20.915Z,30.03
2019-03-30T10:52:46.987Z,28.07
2019-03-30T10:55:12.989Z,27.50
2019-03-30T10:57:38.999Z,28.73
2019-03-30T11:00:05.754Z,29.03
2019-03-30T11:02:31.780Z,27.50
2019-03-30T11:04:57.764Z,26.00
2019-03-30T11:07:23.867Z,25.87
2019-03-30T11:09:49.884Z,25.43
2019-03-30T11:12:17.935Z,26.17
2019-03-30T11:14:43.990Z,23.60
2019-03-30T11:17:10.085Z,23.43
2019-03-30T11:19:36.174Z,25.17
2019-03-30T11:22:03.621Z,24.33
2019-03-30T11:24:29.720Z,25.40
2019-03-30T11:26:57.603Z,25.50
2019-03-30T11:29:23.726Z,24.33
2019-03-30T11:31:49.836Z,21.33
2019-03-30T11:34:16.160Z,22.00
2019-03-30T11:36:42.348Z,20.03
2019-03-30T11:39:08.366Z,20.57
2019-03-30T11:41:34.442Z,15.30
2019-03-30T11:44:00.750Z,15.13
2019-03-30T11:46:26.817Z,14.63
2019-03-30T11:48:52.904Z,15.07
2019-03-30T11:51:18.905Z,16.07
2019-03-30T11:53:44.949Z,13.07
2019-03-30T11:56:10.956Z,13.10
2019-03-30T11:58:37.073Z,15.27
2019-03-30T12:01:03.084Z,14.43
2019-03-30T12:03:29.100Z,12.50
2019-03-30T12:05:55.101Z,13.37
2019-03-30T12:08:21.136Z,12.33
2019-03-30T12:10:47.207Z,12.43
2019-03-30T12:13:13.537Z,12.20
2019-03-30T12:15:39.523Z,11.93
2019-03-30T12:18:05.617Z,13.27
2019-03-30T12:20:32.169Z,12.50
2019-03-30T12:22:58.152Z,12.40
2019-03-30T12:25:34.965Z,12.23
2019-03-30T12:27:52.084Z,11.77
2019-03-30T12:30:18.128Z,10.90
2019-03-30T12:32:44.158Z,11.03
2019-03-30T12:35:10.300Z,11.93
2019-03-30T12:37:36.419Z,12.20
2019-03-30T12:40:04.641Z,14.10
2019-03-30T12:42:30.648Z,13.17
2019-03-30T12:44:56.693Z,13.03
2019-03-30T12:47:22.692Z,14.83
2019-03-30T12:49:48.681Z,15.47
2019-03-30T12:52:14.732Z,14.43
2019-03-30T12:54:40.729Z,14.60
2019-03-30T12:57:06.715Z,15.30
2019-03-30T12:59:32.747Z,13.00
2019-03-30T13:01:58.729Z,16.80
2019-03-30T13:04:24.747Z,16.30
2019-03-30T13:06:50.771Z,15.17
2019-03-30T13:09:16.765Z,15.63
2019-03-30T13:11:42.776Z,14.20
2019-03-30T13:14:08.914Z,15.10
2019-03-30T13:16:34.997Z,14.80
2019-03-30T13:19:01.065Z,15.30
2019-03-30T13:21:27.075Z,13.73
2019-03-30T13:23:53.409Z,14.87
2019-03-30T13:26:19.457Z,15.17
2019-03-30T13:28:45.475Z,16.13
2019-03-30T13:31:11.522Z,14.23
2019-03-30T13:33:37.539Z,14.80
2019-03-30T13:36:03.634Z,14.73
2019-03-30T13:38:29.644Z,12.17
2019-03-30T13:40:55.683Z,12.10
2019-03-30T13:43:21.747Z,12.37
2019-03-30T13:45:47.975Z,11.57
2019-03-30T13:48:13.968Z,12.23
2019-03-30T13:50:39.961Z,10.50
2019-03-30T13:53:05.988Z,10.40
2019-03-30T13:55:31.976Z,10.00
2019-03-30T13:57:57.961Z,9.83
2019-03-30T14:00:24.060Z,10.87
2019-03-30T14:02:50.050Z,10.20
2019-03-30T14:05:16.095Z,10.20
2019-03-30T14:07:42.113Z,11.60
2019-03-30T14:10:08.845Z,11.60
2019-03-30T14:12:34.819Z,10.10
2019-03-30T14:15:00.805Z,12.57
2019-03-30T14:17:26.827Z,10.90
2019-03-30T14:19:52.811Z,12.30
2019-03-30T14:22:18.848Z,11.53
2019-03-30T14:24:45.198Z,11.43
2019-03-30T14:27:11.480Z,11.43
2019-03-30T14:29:37.515Z,11.40
2019-03-30T14:32:03.572Z,10.63
2019-03-30T14:34:29.689Z,11.73
2019-03-30T14:36:55.676Z,12.73
2019-03-30T14:39:21.763Z,11.80
2019-03-30T14:41:48.004Z,14.40
2019-03-30T14:44:15.248Z,11.20
2019-03-30T14:46:41.446Z,11.70
2019-03-30T14:49:07.536Z,12.37
2019-03-30T14:51:33.623Z,12.40
2019-03-30T14:53:59.703Z,12.70
2019-03-30T14:56:25.745Z,13.37
2019-03-30T14:58:51.750Z,11.70
2019-03-30T15:01:18.145Z,13.60
2019-03-30T15:03:44.217Z,12.30
2019-03-30T15:06:10.212Z,14.83
2019-03-30T15:08:36.492Z,23.53
2019-03-30T15:11:02.572Z,25.13
2019-03-30T15:13:28.634Z,27.70
2019-03-30T15:15:54.652Z,28.63
2019-03-30T15:18:20.720Z,28.40
2019-03-30T15:20:46.933Z,29.60
2019-03-30T15:23:12.991Z,29.53
2019-03-30T15:25:39.056Z,28.30
2019-03-30T15:28:05.092Z,29.03
2019-03-30T15:30:31.144Z,30.20
2019-03-30T15:32:57.164Z,28.47
2019-03-30T15:35:23.219Z,29.50
2019-03-30T15:37:49.267Z,27.63
2019-03-30T15:40:15.357Z,28.67
2019-03-30T15:42:41.361Z,30.07
2019-03-30T15:45:08.500Z,30.93
2019-03-30T15:47:34.480Z,28.67
2019-03-30T15:50:00.708Z,28.13
2019-03-30T15:52:26.739Z,32.10
2019-03-30T15:54:52.794Z,30.13
2019-03-30T15:57:18.922Z,29.83
2019-03-30T15:59:45.375Z,29.57
2019-03-30T16:02:11.504Z,29.40
2019-03-30T16:04:37.489Z,30.20
2019-03-30T16:07:06.736Z,31.80
2019-03-30T16:09:31.565Z,29.43
2019-03-30T16:11:58.484Z,32.00
2019-03-30T16:14:24.473Z,30.97
2019-03-30T16:16:50.759Z,29.77
2019-03-30T16:19:16.798Z,31.57
2019-03-30T16:21:42.881Z,33.10
2019-03-30T16:24:08.889Z,34.63
2019-03-30T16:26:42.018Z,33.50
2019-03-30T16:29:02.898Z,34.90
2019-03-30T16:31:29.171Z,33.13
2019-03-30T16:33:55.381Z,32.73
2019-03-30T16:36:21.491Z,32.87
2019-03-30T16:38:47.782Z,34.93
2019-03-30T16:41:14.072Z,32.13
2019-03-30T16:43:40.112Z,36.73
2019-03-30T16:46:06.150Z,33.47
2019-03-30T16:48:32.184Z,35.37
2019-03-30T16:50:58.171Z,33.97
2019-03-30T16:53:24.360Z,33.40
2019-03-30T16:55:50.482Z,33.20
2019-03-30T16:58:16.529Z,35.13
2019-03-30T17:00:55.597Z,37.27
2019-03-30T17:03:10.484Z,38.50
2019-03-30T17:05:36.571Z,35.77
2019-03-30T17:08:02.549Z,38.90
2019-03-30T17:10:28.558Z,37.20
2019-03-30T17:12:54.568Z,36.37
2019-03-30T17:15:22.446Z,36.80
2019-03-30T17:17:48.560Z,37.03
2019-03-30T17:20:14.594Z,36.57
2019-03-30T17:22:40.598Z,37.17
2019-03-30T17:25:06.876Z,35.70
2019-03-30T17:27:32.897Z,33.13
2019-03-30T17:29:58.890Z,33.80
2019-03-30T17:32:24.933Z,34.60
2019-03-30T17:34:50.939Z,32.97
2019-03-30T17:37:16.925Z,32.63
2019-03-30T17:39:43.139Z,34.67
2019-03-30T17:42:10.949Z,32.17
2019-03-30T17:44:37.047Z,33.43
2019-03-30T17:47:03.075Z,33.47
2019-03-30T17:49:29.318Z,34.23
2019-03-30T17:51:55.325Z,32.93
2019-03-30T17:54:21.308Z,33.83
2019-03-30T17:56:47.367Z,33.90
2019-03-30T17:59:13.347Z,36.13
2019-03-30T18:01:39.329Z,35.10
2019-03-30T18:04:05.360Z,33.57
2019-03-30T18:06:31.371Z,30.50
2019-03-30T18:08:57.386Z,32.90
2019-03-30T18:11:23.420Z,34.50
2019-03-30T18:13:49.457Z,34.47
2019-03-30T18:16:15.669Z,36.87
2019-03-30T18:18:41.712Z,33.17
2019-03-30T18:21:07.848Z,37.23
2019-03-30T18:23:34.490Z,37.23
2019-03-30T18:26:00.683Z,36.37
2019-03-30T18:28:27.675Z,37.90
2019-03-30T18:30:56.118Z,34.73
2019-03-30T18:33:22.391Z,34.30
2019-03-30T18:35:48.612Z,37.20
2019-03-30T18:38:15.565Z,36.03
2019-03-30T18:40:41.916Z,37.17
2019-03-30T18:43:08.410Z,40.30
2019-03-30T18:45:34.677Z,39.13
2019-03-30T18:48:14.550Z,38.70
2019-03-30T18:50:41.412Z,40.53
2019-03-30T18:53:07.912Z,39.13
2019-03-30T18:55:34.420Z,39.03
2019-03-30T18:58:00.945Z,39.83
2019-03-30T19:00:27.140Z,41.73
2019-03-30T19:02:53.162Z,41.83
2019-03-30T19:05:19.236Z,42.87
2019-03-30T19:07:45.253Z,41.10
2019-03-30T19:10:11.459Z,42.43
2019-03-30T19:12:37.485Z,42.17
2019-03-30T19:15:05.744Z,44.80
2019-03-30T19:17:33.329Z,45.73
2019-03-30T19:20:00.905Z,46.03
2019-03-30T19:22:26.928Z,41.87
2019-03-30T19:24:53.242Z,41.53
2019-03-30T19:27:19.231Z,44.07
2019-03-30T19:29:45.383Z,40.83
2019-03-30T19:35:35.190Z,45.53
2019-03-30T19:38:01.464Z,44.03
2019-03-30T19:40:27.472Z,44.80
2019-03-30T19:42:53.888Z,46.83
2019-03-30T19:45:19.929Z,45.80
2019-03-30T19:47:45.919Z,42.13
2019-03-30T19:50:18.620Z,43.43
2019-03-30T19:52:44.642Z,46.53
2019-03-30T19:55:10.857Z,48.73
2019-03-30T19:57:36.842Z,46.40
2019-03-30T20:00:06.833Z,41.93
2019-03-30T20:02:32.937Z,44.80
2019-03-30T20:04:58.916Z,47.00
2019-03-30T20:07:26.485Z,47.97
2019-03-30T20:09:53.234Z,48.30
2019-03-30T20:12:19.574Z,47.83
2019-03-30T20:14:46.175Z,52.90
2019-03-30T20:17:12.767Z,42.90
2019-03-30T20:19:38.927Z,45.50
2019-03-30T20:22:05.032Z,44.63
2019-03-30T20:24:31.180Z,52.60
2019-03-30T20:26:57.205Z,50.60
2019-03-30T20:29:25.557Z,48.23
2019-03-30T20:31:51.229Z,47.77
2019-03-30T20:34:17.551Z,50.03
2019-03-30T20:36:43.602Z,49.50
2019-03-30T20:39:10.079Z,48.33
2019-03-30T20:41:36.185Z,50.03
2019-03-30T20:44:02.160Z,49.47
2019-03-30T20:46:28.149Z,52.97
2019-03-30T20:48:54.268Z,47.97
2019-03-30T20:51:20.358Z,48.80
2019-03-30T20:53:46.593Z,61.67
2019-03-30T20:56:12.673Z,58.93
2019-03-30T20:58:38.689Z,58.43
2019-03-30T21:01:04.724Z,56.03
2019-03-30T21:03:30.786Z,60.40
2019-03-30T21:05:57.038Z,62.93
2019-03-30T21:08:23.104Z,65.67
2019-03-30T21:10:49.085Z,70.07
2019-03-30T21:13:15.111Z,64.13
2019-03-30T21:15:41.160Z,69.50
2019-03-30T21:18:07.287Z,67.97
2019-03-30T21:20:33.261Z,67.17
2019-03-30T21:22:59.272Z,73.63
2019-03-30T21:25:25.360Z,69.93
2019-03-30T21:27:51.481Z,70.17
2019-03-30T21:30:17.790Z,75.00
2019-03-30T21:32:43.801Z,66.50
2019-03-30T21:35:10.041Z,75.13
2019-03-30T21:37:36.321Z,77.03
2019-03-30T21:40:04.539Z,72.17
2019-03-30T21:42:30.596Z,75.47
2019-03-30T21:44:56.604Z,73.13
2019-03-30T21:47:22.624Z,72.30
2019-03-30T21:49:48.636Z,79.10
2019-03-30T21:52:14.729Z,74.97
2019-03-30T21:54:40.724Z,65.70
2019-03-30T21:57:06.692Z,73.03
2019-03-30T21:59:32.803Z,75.83
2019-03-30T22:01:58.846Z,81.40
2019-03-30T22:04:24.832Z,78.97
2019-03-30T22:06:50.820Z,78.67
2019-03-30T22:09:16.837Z,74.53
2019-03-30T22:11:42.815Z,79.27
2019-03-30T22:14:08.837Z,70.77
2019-03-30T22:16:34.885Z,78.90
2019-03-30T22:19:00.960Z,77.07
2019-03-30T22:21:26.985Z,78.70
2019-03-30T22:23:53.379Z,79.63
2019-03-30T22:26:19.913Z,80.13
2019-03-30T22:28:45.993Z,76.73
2019-03-30T22:31:12.056Z,80.90
2019-03-30T22:33:38.038Z,77.90
2019-03-30T22:36:04.266Z,83.03
2019-03-30T22:38:30.316Z,87.33
2019-03-30T22:40:56.316Z,85.87
2019-03-30T22:43:22.323Z,81.63
2019-03-30T22:45:48.312Z,85.07
2019-03-30T22:48:14.328Z,85.60
2019-03-30T22:50:40.383Z,80.20
2019-03-30T22:53:06.416Z,79.87
2019-03-30T22:55:32.450Z,81.73
2019-03-30T22:57:58.480Z,76.60
2019-03-30T23:00:39.029Z,77.67
2019-03-30T23:03:04.944Z,83.20
2019-03-30T23:05:30.920Z,82.47
2019-03-30T23:07:56.899Z,79.17
2019-03-30T23:10:22.928Z,77.03
2019-03-30T23:12:48.929Z,76.70
2019-03-30T23:15:14.920Z,70.53
2019-03-30T23:17:40.935Z,82.17
2019-03-30T23:20:07.100Z,72.10
2019-03-30T23:22:33.063Z,82.13
2019-03-30T23:24:59.110Z,76.77
2019-03-30T23:27:25.159Z,74.70
2019-03-30T23:29:51.151Z,75.90
2019-03-30T23:32:17.187Z,64.97
2019-03-30T23:34:43.163Z,76.77
2019-03-30T23:37:09.180Z,72.93
2019-03-30T23:39:35.219Z,72.23
2019-03-30T23:42:01.228Z,78.53
2019-03-30T23:44:27.262Z,80.23
2019-03-30T23:46:54.284Z,72.97
2019-03-30T23:49:20.313Z,72.43
2019-03-30T23:51:46.397Z,73.13
2019-03-30T23:54:14.284Z,66.80
2019-03-30T23:56:40.315Z,84.03
2019-03-30T23:59:06.367Z,74.37
